Time;durP1;ratioP1;P1;durP2;ratioP2;P2;SDS_P1;SDS_P2;PMS_P1;PMS_P2;Temp;Humidity;BMP_temperature;BMP_pressure;BME280_temperature;BME280_humidity;BME280_pressure;Samples;Min_cycle;Max_cycle;Signal;HPM_P1;HPM_P2
2022/11/12 00:02:22;;;;;;;11.35;5.65;;;6.60;99.90;;;;;;4913981;29;20048;-85
2022/11/12 00:05:03;;;;;;;13.18;8.15;;;6.60;99.90;;;;;;4913217;29;20040;-86
2022/11/12 00:07:29;;;;;;;12.35;7.72;;;6.60;99.90;;;;;;4911453;29;20067;-86
2022/11/12 00:09:57;;;;;;;7.82;5.15;;;6.60;99.90;;;;;;4925673;29;20081;-86
2022/11/12 00:12:22;;;;;;;7.78;4.50;;;6.50;99.90;;;;;;4908678;29;20503;-86
2022/11/12 00:14:53;;;;;;;12.55;4.15;;;6.50;99.90;;;;;;4914046;29;20054;-87
2022/11/12 00:17:19;;;;;;;9.40;6.63;;;6.40;99.90;;;;;;4925000;29;21549;-86
2022/11/12 00:19:44;;;;;;;13.50;6.47;;;6.30;99.90;;;;;;4927049;29;20135;-86
2022/11/12 00:22:10;;;;;;;7.55;5.43;;;6.40;99.90;;;;;;4906306;29;20363;-86
2022/11/12 00:24:35;;;;;;;6.97;5.53;;;6.30;99.90;;;;;;4911104;29;20067;-86
2022/11/12 00:27:01;;;;;;;5.82;4.82;;;6.30;99.90;;;;;;4909772;29;20047;-86
2022/11/12 00:29:26;;;;;;;6.65;4.80;;;6.20;99.90;;;;;;4912121;29;20078;-86
2022/11/12 00:32:00;;;;;;;7.18;5.35;;;6.10;99.90;;;;;;4912407;29;20103;-86
2022/11/12 00:34:25;;;;;;;8.27;5.10;;;6.20;99.90;;;;;;4928311;29;20091;-86
2022/11/12 00:36:51;;;;;;;8.55;7.35;;;6.10;99.90;;;;;;4925504;29;20039;-87
2022/11/12 00:39:16;;;;;;;7.43;6.35;;;6.10;99.90;;;;;;4913492;29;20369;-86
2022/11/12 00:41:42;;;;;;;8.80;6.50;;;6.10;99.90;;;;;;4925200;29;20059;-86
2022/11/12 00:44:12;;;;;;;8.55;5.90;;;6.10;99.90;;;;;;4906421;29;20120;-86
2022/11/12 00:46:49;;;;;;;16.60;6.28;;;6.10;99.90;;;;;;4927962;29;20054;-86
2022/11/12 00:49:14;;;;;;;13.05;6.10;;;6.00;99.90;;;;;;4925154;29;20044;-86
2022/11/12 00:51:40;;;;;;;7.88;4.68;;;5.90;99.90;;;;;;4919743;29;20067;-86
2022/11/12 00:54:16;;;;;;;6.03;5.43;;;5.90;99.90;;;;;;4911776;29;20043;-86
2022/11/12 00:56:41;;;;;;;7.68;5.85;;;5.80;99.90;;;;;;4906924;29;20696;-86
2022/11/12 00:59:07;;;;;;;9.95;6.18;;;5.80;99.90;;;;;;4914405;29;20122;-87
2022/11/12 01:01:32;;;;;;;12.05;7.97;;;5.80;99.90;;;;;;4924184;29;21019;-86
2022/11/12 01:04:08;;;;;;;11.25;6.72;;;5.90;99.90;;;;;;4906623;29;20040;-86
2022/11/12 01:06:34;;;;;;;;;;;5.90;99.90;;;;;;4926269;29;20040;-87
2022/11/12 01:08:59;;;;;;;7.50;6.05;;;5.80;99.90;;;;;;4923109;29;19945;-86
2022/11/12 01:11:28;;;;;;;12.48;9.70;;;5.80;99.90;;;;;;4908610;29;20044;-86
2022/11/12 01:14:11;;;;;;;12.35;9.95;;;5.80;99.90;;;;;;4911606;29;20040;-86
2022/11/12 01:16:39;;;;;;;11.80;8.45;;;5.90;99.90;;;;;;4912569;29;20491;-86
2022/11/12 01:19:07;;;;;;;12.05;7.53;;;5.90;99.90;;;;;;4903416;29;20043;-86
2022/11/12 01:21:59;;;;;;;10.48;6.63;;;5.90;99.90;;;;;;4909368;29;20100;-85
2022/11/12 01:24:24;;;;;;;8.30;6.38;;;5.80;99.90;;;;;;4905451;29;20113;-84
2022/11/12 01:27:11;;;;;;;8.07;6.30;;;5.70;99.90;;;;;;4907486;29;21068;-86
2022/11/12 01:29:36;;;;;;;8.98;8.02;;;5.70;99.90;;;;;;4905577;29;20122;-86
2022/11/12 01:32:02;;;;;;;9.60;8.35;;;5.70;99.90;;;;;;4908719;29;20503;-86
2022/11/12 01:34:40;;;;;;;10.32;9.00;;;5.80;99.90;;;;;;4923449;29;20091;-85
2022/11/12 01:37:05;;;;;;;16.92;10.45;;;5.80;99.90;;;;;;4903567;29;20047;-85
2022/11/12 01:39:31;;;;;;;13.65;9.13;;;5.80;99.90;;;;;;4912595;29;20043;-86
2022/11/12 01:41:56;;;;;;;13.10;8.05;;;5.80;99.90;;;;;;4905838;29;20192;-87
2022/11/12 01:44:33;;;;;;;13.23;8.95;;;5.80;99.90;;;;;;4908022;29;20131;-86
2022/11/12 01:47:24;;;;;;;15.65;11.30;;;6.40;99.90;;;;;;4906196;29;21413;-86
2022/11/12 01:50:06;;;;;;;14.73;10.88;;;5.90;99.90;;;;;;4906917;29;20062;-83
2022/11/12 01:52:55;;;;;;;8.90;7.50;;;5.90;99.90;;;;;;4909742;29;20058;-86
2022/11/12 01:55:28;;;;;;;14.15;10.23;;;5.90;99.90;;;;;;4928951;29;20446;-86
2022/11/12 01:58:11;;;;;;;17.63;12.02;;;5.90;99.90;;;;;;4942197;28;20104;-86
2022/11/12 02:00:38;;;;;;;17.77;12.82;;;5.90;99.90;;;;;;4905702;29;20039;-86
2022/11/12 02:03:14;;;;;;;8.45;7.55;;;5.90;99.90;;;;;;4923267;29;20047;-86
2022/11/12 02:05:43;;;;;;;;;;;5.80;99.90;;;;;;4924501;29;20043;-86
2022/11/12 02:08:11;;;;;;;9.95;8.93;;;5.30;99.90;;;;;;4925123;29;19945;-86
2022/11/12 02:10:38;;;;;;;14.90;9.88;;;6.30;99.90;;;;;;4921154;29;20581;-86
2022/11/12 02:15:48;;;;;;;14.73;12.40;;;5.70;99.90;;;;;;4923316;29;20050;-86
2022/11/12 02:18:14;;;;;;;20.95;14.13;;;5.80;99.90;;;;;;4911386;29;20557;-86
2022/11/12 02:20:39;;;;;;;19.63;13.55;;;5.80;99.90;;;;;;4921981;29;20047;-86
2022/11/12 02:23:10;;;;;;;18.48;13.50;;;5.90;99.90;;;;;;4927576;29;20031;-86
2022/11/12 02:25:44;;;;;;;20.30;13.80;;;5.90;99.90;;;;;;4899909;29;20499;-86
2022/11/12 02:28:10;;;;;;;14.48;10.60;;;5.90;99.90;;;;;;4900540;29;20111;-86
2022/11/12 02:30:57;;;;;;;15.70;9.32;;;5.90;99.90;;;;;;4908986;29;20506;-85
2022/11/12 02:33:23;;;;;;;12.60;10.40;;;5.80;99.90;;;;;;4913752;29;20051;-86
2022/11/12 02:35:48;;;;;;;11.15;9.35;;;5.80;99.90;;;;;;4915924;29;20027;-86
2022/11/12 02:38:14;;;;;;;16.02;11.07;;;5.80;99.90;;;;;;4916395;29;20040;-85
2022/11/12 02:40:45;;;;;;;8.70;6.65;;;5.80;99.90;;;;;;4916675;29;20080;-86
2022/11/12 02:43:15;;;;;;;5.13;4.18;;;5.70;99.90;;;;;;4894048;29;20577;-86
2022/11/12 02:45:40;;;;;;;5.13;4.63;;;5.50;99.90;;;;;;4924630;29;20043;-85
2022/11/12 02:48:06;;;;;;;16.05;10.77;;;5.60;99.90;;;;;;4914623;29;20039;-86
2022/11/12 02:50:31;;;;;;;14.32;11.45;;;5.50;99.90;;;;;;4913173;29;20046;-87
2022/11/12 02:53:02;;;;;;;16.13;12.00;;;5.60;99.90;;;;;;4927838;29;20039;-85
2022/11/12 02:55:34;;;;;;;13.05;11.48;;;6.20;99.90;;;;;;4912966;29;20042;-86
2022/11/12 02:57:59;;;;;;;9.85;7.18;;;5.70;99.90;;;;;;4927006;29;20071;-86
2022/11/12 03:00:25;;;;;;;15.55;7.88;;;5.60;99.90;;;;;;4925841;29;20067;-86
2022/11/12 03:05:38;;;;;;;17.58;12.27;;;5.60;99.90;;;;;;4925661;29;20039;-86
2022/11/12 03:08:06;;;;;;;17.55;12.43;;;5.60;99.90;;;;;;4927733;29;20160;-86
2022/11/12 03:10:32;;;;;;;13.75;8.88;;;5.60;99.90;;;;;;4910087;29;20039;-86
2022/11/12 03:13:03;;;;;;;7.38;6.50;;;5.70;99.90;;;;;;4913286;29;20865;-85
2022/11/12 03:15:29;;;;;;;13.68;8.35;;;5.50;99.90;;;;;;4898149;29;20489;-86
2022/11/12 03:17:57;;;;;;;8.40;7.60;;;5.40;99.90;;;;;;4911223;29;20036;-87
2022/11/12 03:20:23;;;;;;;9.55;8.55;;;5.40;99.90;;;;;;4910332;29;20048;-86
2022/11/12 03:23:08;;;;;;;10.07;9.07;;;5.30;99.90;;;;;;4928481;29;20047;-86
2022/11/12 03:25:34;;;;;;;10.70;9.13;;;5.30;99.90;;;;;;4925867;29;20546;-86
2022/11/12 03:28:06;;;;;;;8.80;7.82;;;5.30;99.90;;;;;;4914800;29;20046;-86
2022/11/12 03:30:45;;;;;;;13.43;10.85;;;5.40;99.90;;;;;;4908302;29;20486;-86
2022/11/12 03:33:12;;;;;;;12.43;11.07;;;5.50;99.90;;;;;;4929840;29;20493;-87
2022/11/12 03:35:39;;;;;;;14.07;11.15;;;5.50;99.90;;;;;;4911726;29;20039;-86
2022/11/12 03:38:11;;;;;;;12.77;10.68;;;5.50;99.90;;;;;;4912674;29;20035;-85
2022/11/12 03:40:45;;;;;;;18.83;11.38;;;5.60;99.90;;;;;;4899036;29;20479;-86
2022/11/12 03:43:11;;;;;;;9.55;8.18;;;5.50;99.90;;;;;;4925573;29;20055;-86
2022/11/12 03:45:36;;;;;;;13.05;9.10;;;5.40;99.90;;;;;;4908615;29;20043;-84
2022/11/12 03:48:28;;;;;;;14.98;10.85;;;5.30;99.90;;;;;;4912401;29;20043;-86
2022/11/12 03:50:58;;;;;;;232.10;15.70;;;5.30;99.90;;;;;;4910921;29;20047;-86
2022/11/12 03:53:36;;;;;;;110.28;12.27;;;5.30;99.90;;;;;;4913358;29;20044;-86
2022/11/12 03:56:01;;;;;;;107.78;11.73;;;5.20;99.90;;;;;;4912738;29;20044;-87
2022/11/12 03:58:27;;;;;;;73.00;9.23;;;5.00;99.90;;;;;;4913507;29;20078;-86
2022/11/12 04:00:52;;;;;;;11.18;7.38;;;5.00;99.90;;;;;;4911927;29;20047;-86
2022/11/12 04:03:18;;;;;;;10.18;7.43;;;5.00;99.90;;;;;;4909224;29;20059;-86
2022/11/12 04:08:36;;;;;;;9.43;8.13;;;5.00;99.90;;;;;;4925045;29;20047;-86
2022/11/12 04:11:11;;;;;;;10.77;8.63;;;5.10;99.90;;;;;;4924671;29;20066;-86
2022/11/12 04:13:38;;;;;;;13.10;9.45;;;5.10;99.90;;;;;;4907195;29;20054;-86
2022/11/12 04:21:54;;;;;;;10.88;8.77;;;5.00;99.90;;;;;;4925254;29;20455;-86
2022/11/12 04:27:16;;;;;;;28.67;8.80;;;4.90;99.90;;;;;;4923920;29;20084;-85
2022/11/12 04:32:58;;;;;;;17.80;5.90;;;4.80;99.90;;;;;;4924130;29;20138;-86
2022/11/12 04:35:25;;;;;;;64.10;9.05;;;4.70;99.90;;;;;;4941957;28;20065;-86
2022/11/12 04:37:51;;;;;;;48.17;8.32;;;4.50;99.90;;;;;;4927068;29;20115;-86
2022/11/12 04:46:28;;;;;;;12.30;6.80;;;4.20;99.90;;;;;;4924139;29;20058;-86
2022/11/12 04:48:53;;;;;;;9.80;6.60;;;4.30;99.90;;;;;;4910585;29;20040;-84
2022/11/12 04:54:03;;;;;;;11.65;9.48;;;4.40;99.90;;;;;;4925487;29;20050;-85
2022/11/12 04:56:28;;;;;;;11.48;10.27;;;4.50;99.90;;;;;;4906280;29;20039;-86
2022/11/12 04:58:54;;;;;;;12.85;10.27;;;4.60;99.90;;;;;;4925560;29;20036;-86
2022/11/12 05:01:25;;;;;;;15.40;11.00;;;4.60;99.90;;;;;;4909126;29;20427;-86
2022/11/12 05:03:53;;;;;;;14.48;10.48;;;4.60;99.90;;;;;;4922706;29;20135;-83
2022/11/12 05:09:15;;;;;;;14.55;8.48;;;4.70;99.90;;;;;;4923477;29;20043;-86
2022/11/12 05:11:41;;;;;;;14.93;10.48;;;4.70;99.90;;;;;;4910788;29;20370;-86
2022/11/12 05:14:06;;;;;;;13.60;10.60;;;4.70;99.90;;;;;;4910470;29;20434;-86
2022/11/12 05:16:43;;;;;;;19.63;11.75;;;4.80;99.90;;;;;;4924066;29;20472;-85
2022/11/12 05:19:08;;;;;;;9.77;7.45;;;4.90;99.90;;;;;;4907344;29;20051;-85
2022/11/12 05:24:40;;;;;;;8.55;7.55;;;4.70;99.90;;;;;;4925706;29;20550;-86
2022/11/12 05:27:09;;;;;;;53.40;10.82;;;4.70;99.90;;;;;;4936291;28;20059;-86
2022/11/12 05:29:39;;;;;;;282.30;21.30;;;4.60;99.90;;;;;;4909988;29;20040;-84
2022/11/12 05:32:06;;;;;;;65.38;13.30;;;4.60;99.90;;;;;;4912873;29;20600;-85
2022/11/12 05:34:32;;;;;;;213.15;16.17;;;4.50;99.90;;;;;;4913931;29;20063;-85
2022/11/12 05:37:00;;;;;;;108.43;12.15;;;4.50;99.90;;;;;;4912943;29;20199;-86
2022/11/12 05:39:29;;;;;;;146.63;14.52;;;4.60;99.90;;;;;;4922442;29;20058;-85
2022/11/12 05:41:55;;;;;;;9.95;8.68;;;4.40;99.90;;;;;;4909812;29;20068;-85
2022/11/12 05:44:21;;;;;;;11.40;8.43;;;4.40;99.90;;;;;;4922842;29;20032;-86
2022/11/12 05:46:47;;;;;;;9.23;8.27;;;4.50;99.90;;;;;;4912999;29;20040;-85
2022/11/12 05:49:12;;;;;;;18.45;11.20;;;4.50;99.90;;;;;;4920934;29;20043;-86
2022/11/12 05:51:38;;;;;;;33.15;9.50;;;4.50;99.90;;;;;;4914813;29;20067;-86
2022/11/12 05:54:11;;;;;;;12.90;8.00;;;4.40;99.90;;;;;;4913324;29;20050;-85
2022/11/12 05:56:37;;;;;;;12.32;8.45;;;4.50;99.90;;;;;;4911098;29;20039;-86
2022/11/12 05:59:06;;;;;;;87.82;9.85;;;4.40;99.90;;;;;;4912422;29;20134;-86
2022/11/12 06:01:33;;;;;;;300.65;17.88;;;4.40;99.90;;;;;;4917841;29;20053;-85
2022/11/12 06:03:59;;;;;;;117.55;11.82;;;4.30;99.90;;;;;;4916430;29;20143;-85
2022/11/12 06:06:27;;;;;;;217.40;14.25;;;4.20;99.90;;;;;;4917079;29;20119;-86
2022/11/12 06:08:55;;;;;;;244.32;15.13;;;4.20;99.90;;;;;;4915343;29;20048;-83
2022/11/12 06:11:21;;;;;;;64.63;10.15;;;4.20;99.90;;;;;;4930366;29;20056;-86
2022/11/12 06:13:46;;;;;;;153.40;13.02;;;4.10;99.90;;;;;;4915426;29;20751;-85
2022/11/12 06:16:12;;;;;;;59.88;10.82;;;4.10;99.90;;;;;;4915310;29;20166;-84
2022/11/12 06:18:43;;;;;;;24.25;8.50;;;4.20;99.90;;;;;;4914734;29;20051;-85
2022/11/12 06:21:21;;;;;;;24.42;10.27;;;4.10;99.90;;;;;;4911195;29;20076;-86
2022/11/12 06:23:49;;;;;;;25.63;11.25;;;4.10;99.90;;;;;;4921697;29;20043;-84
2022/11/12 06:26:14;;;;;;;8.70;7.80;;;4.20;99.90;;;;;;4931741;29;20040;-84
2022/11/12 06:28:40;;;;;;;13.30;9.50;;;4.20;99.90;;;;;;4912489;29;20529;-85
2022/11/12 06:31:10;;;;;;;11.30;10.10;;;4.30;99.90;;;;;;4939924;28;20856;-86
2022/11/12 06:33:35;;;;;;;18.58;9.57;;;4.10;99.90;;;;;;4916044;29;20054;-86
2022/11/12 06:36:03;;;;;;;12.70;10.00;;;4.40;99.90;;;;;;4916101;29;20048;-85
2022/11/12 06:42:41;;;;;;;9.25;8.25;;;4.80;99.90;;;;;;4959798;28;20552;-88
2022/11/12 06:45:32;;;;;;;17.45;11.60;;;4.90;99.90;;;;;;4960568;28;20118;-86
2022/11/12 06:48:21;;;;;;;16.85;9.77;;;4.80;99.90;;;;;;4950133;28;20066;-87
2022/11/12 06:50:46;;;;;;;11.65;9.10;;;4.90;99.90;;;;;;4911241;29;20060;-87
2022/11/12 06:53:31;;;;;;;12.30;8.30;;;5.30;99.90;;;;;;4916569;29;20097;-87
2022/11/12 06:56:01;;;;;;;11.57;9.38;;;5.10;99.90;;;;;;4916088;29;20094;-84
2022/11/12 06:58:27;;;;;;;10.57;9.05;;;5.20;99.90;;;;;;4925772;29;20398;-81
2022/11/12 07:00:52;;;;;;;18.00;9.55;;;5.20;99.90;;;;;;4907833;29;20043;-82
2022/11/12 07:03:18;;;;;;;18.13;11.60;;;5.30;99.90;;;;;;4906976;29;20035;-83
2022/11/12 07:05:43;;;;;;;9.80;8.40;;;5.40;99.90;;;;;;4925102;29;20035;-83
2022/11/12 07:08:09;;;;;;;21.17;11.90;;;5.40;99.90;;;;;;4921915;29;20890;-85
2022/11/12 07:10:34;;;;;;;11.38;9.40;;;5.40;99.90;;;;;;4908547;29;20040;-84
2022/11/12 07:13:00;;;;;;;11.93;9.07;;;5.50;99.90;;;;;;4908067;29;20094;-85
2022/11/12 07:15:25;;;;;;;19.35;10.38;;;5.50;99.90;;;;;;4910897;29;20043;-86
2022/11/12 07:17:52;;;;;;;20.77;10.55;;;5.50;99.90;;;;;;4923894;29;20043;-87
2022/11/12 07:20:29;;;;;;;14.68;10.30;;;5.40;99.90;;;;;;4897247;29;20051;-88
2022/11/12 07:22:58;;;;;;;24.08;9.57;;;5.60;99.90;;;;;;4909818;29;20040;-85
2022/11/12 07:25:23;;;;;;;23.08;10.77;;;5.60;99.90;;;;;;4907671;29;20042;-87
2022/11/12 07:27:49;;;;;;;69.85;16.33;;;5.60;99.90;;;;;;4909770;29;20043;-85
2022/11/12 07:30:31;;;;;;;70.80;16.48;;;5.60;99.90;;;;;;4913473;29;20048;-88
2022/11/12 07:32:57;;;;;;;54.33;14.05;;;5.70;99.90;;;;;;4893608;29;20048;-87
2022/11/12 07:35:22;;;;;;;37.78;13.10;;;5.60;99.90;;;;;;4910500;29;20048;-84
2022/11/12 07:38:07;;;;;;;34.85;12.43;;;5.70;99.90;;;;;;4925320;29;20342;-87
2022/11/12 07:40:33;;;;;;;24.17;11.50;;;5.80;99.90;;;;;;4913961;29;20076;-87
2022/11/12 07:42:58;;;;;;;28.10;11.52;;;5.80;99.90;;;;;;4911378;29;20064;-86
2022/11/12 07:45:24;;;;;;;36.40;11.85;;;5.90;99.90;;;;;;4913467;29;20036;-87
2022/11/12 07:47:49;;;;;;;51.88;13.15;;;5.90;99.90;;;;;;4911411;29;20047;-86
2022/11/12 07:50:35;;;;;;;30.42;11.48;;;5.90;99.90;;;;;;4913403;29;20046;-89
2022/11/12 07:53:20;;;;;;;;;;;6.00;99.90;;;;;;4910878;29;20115;-90
2022/11/12 07:55:53;;;;;;;76.95;15.23;;;6.00;99.90;;;;;;4942823;28;19923;-87
2022/11/12 07:58:39;;;;;;;59.47;14.88;;;6.20;99.90;;;;;;4937959;28;20063;-88
2022/11/12 08:01:44;;;;;;;61.50;15.00;;;6.20;99.90;;;;;;4913771;29;20035;-84
2022/11/12 08:04:11;;;;;;;56.28;14.20;;;6.20;99.90;;;;;;4855026;29;20131;-83
2022/11/12 08:07:01;;;;;;;77.13;19.40;;;6.30;99.90;;;;;;4853503;29;20136;-86
2022/11/12 08:10:22;;;;;;;93.78;19.30;;;6.30;99.90;;;;;;4882439;29;20123;-88
2022/11/12 08:12:47;;;;;;;94.10;18.45;;;6.50;99.90;;;;;;4940354;28;20711;-85
2022/11/12 08:15:13;;;;;;;73.50;18.77;;;6.50;99.90;;;;;;4912301;29;20042;-84
2022/11/12 08:18:07;;;;;;;100.88;23.60;;;6.60;99.90;;;;;;4927191;29;20047;-85
2022/11/12 08:20:42;;;;;;;103.75;25.27;;;6.60;99.90;;;;;;4914086;29;20402;-87
2022/11/12 08:23:11;;;;;;;91.22;24.48;;;6.70;99.90;;;;;;4925752;29;20766;-83
2022/11/12 08:25:37;;;;;;;88.63;22.38;;;6.70;99.90;;;;;;4924341;29;20106;-84
2022/11/12 08:28:02;;;;;;;99.68;25.13;;;6.70;99.90;;;;;;4922691;29;20082;-84
2022/11/12 08:30:38;;;;;;;153.90;28.95;;;6.70;99.90;;;;;;4919747;29;20040;-84
2022/11/12 08:33:05;;;;;;;155.75;27.63;;;7.10;99.90;;;;;;4909734;29;20110;-84
2022/11/12 08:35:32;;;;;;;72.93;20.40;;;6.80;99.90;;;;;;4912301;29;20106;-85
2022/11/12 08:38:00;;;;;;;62.65;22.00;;;6.80;99.90;;;;;;4908859;29;20052;-84
2022/11/12 08:40:36;;;;;;;47.35;21.52;;;6.80;99.90;;;;;;4908199;29;20044;-84
2022/11/12 08:43:07;;;;;;;42.67;21.23;;;6.90;99.90;;;;;;4924773;29;20447;-83
2022/11/12 08:45:36;;;;;;;43.70;22.60;;;7.00;99.90;;;;;;4914015;29;20094;-85
2022/11/12 08:48:04;;;;;;;38.55;19.77;;;7.00;99.90;;;;;;4911640;29;20047;-84
2022/11/12 08:50:37;;;;;;;32.75;18.90;;;7.00;99.90;;;;;;4925015;28;20036;-84
2022/11/12 08:53:06;;;;;;;26.83;16.33;;;7.00;99.90;;;;;;4907899;29;20067;-85
2022/11/12 08:55:32;;;;;;;30.77;13.05;;;7.00;99.90;;;;;;4923111;29;20510;-84
2022/11/12 08:58:00;;;;;;;23.08;14.85;;;7.10;99.90;;;;;;4918981;29;20044;-84
2022/11/12 09:00:42;;;;;;;17.05;12.60;;;7.20;99.90;;;;;;4907066;29;20119;-85
2022/11/12 09:03:13;;;;;;;16.80;12.48;;;7.30;99.90;;;;;;4906739;29;20487;-84
2022/11/12 09:05:39;;;;;;;15.90;11.70;;;7.30;99.90;;;;;;4921803;29;20032;-83
2022/11/12 09:08:14;;;;;;;13.82;10.48;;;7.20;99.90;;;;;;4912562;29;20047;-85
2022/11/12 09:10:43;;;;;;;14.93;11.18;;;7.40;99.90;;;;;;4922715;29;20414;-83
2022/11/12 09:13:09;;;;;;;10.73;9.73;;;7.50;99.90;;;;;;4920306;29;20035;-84
2022/11/12 09:15:34;;;;;;;13.93;9.68;;;7.60;99.90;;;;;;4910868;29;20375;-84
2022/11/12 09:18:03;;;;;;;12.52;10.52;;;7.60;99.90;;;;;;4913058;29;20050;-84
2022/11/12 09:20:30;;;;;;;10.07;8.65;;;7.70;99.90;;;;;;4913046;29;20062;-84
2022/11/12 09:23:02;;;;;;;15.35;9.30;;;7.80;99.90;;;;;;4906963;29;20082;-84
2022/11/12 09:25:28;;;;;;;10.23;8.98;;;7.80;99.90;;;;;;4924917;29;20035;-84
2022/11/12 09:27:55;;;;;;;10.27;9.27;;;7.90;99.90;;;;;;4936564;28;20036;-82
2022/11/12 09:30:21;;;;;;;12.98;9.05;;;7.90;99.90;;;;;;4922563;29;20170;-81
2022/11/12 09:32:47;;;;;;;10.55;8.45;;;7.90;99.90;;;;;;4940322;28;20047;-81
2022/11/12 09:35:13;;;;;;;12.23;9.25;;;8.00;99.90;;;;;;4912479;29;20044;-82
2022/11/12 09:37:39;;;;;;;11.35;9.52;;;8.00;99.90;;;;;;4907996;29;20489;-82
2022/11/12 09:40:06;;;;;;;12.70;8.73;;;8.00;99.90;;;;;;4912514;29;20036;-82
2022/11/12 09:42:33;;;;;;;11.45;9.77;;;8.00;99.90;;;;;;4906779;29;20059;-81
2022/11/12 09:45:18;;;;;;;11.02;8.65;;;8.00;99.90;;;;;;4906093;29;20111;-82
2022/11/12 09:47:49;;;;;;;12.00;9.18;;;8.00;99.90;;;;;;4905242;29;20099;-82
2022/11/12 09:50:25;;;;;;;13.30;9.55;;;8.00;99.90;;;;;;4923618;29;20036;-82
2022/11/12 09:52:56;;;;;;;12.38;9.52;;;8.10;99.90;;;;;;4905769;29;20299;-82
2022/11/12 09:55:38;;;;;;;13.45;9.73;;;8.10;99.90;;;;;;4908319;29;20103;-81
2022/11/12 09:58:11;;;;;;;11.02;9.80;;;8.20;99.90;;;;;;4908561;29;20047;-81
2022/11/12 10:00:39;;;;;;;16.55;10.35;;;8.30;99.90;;;;;;4937291;28;20109;-81
2022/11/12 10:03:14;;;;;;;10.57;8.98;;;8.30;99.90;;;;;;4919719;29;20047;-81
2022/11/12 10:05:47;;;;;;;10.68;8.70;;;8.40;99.90;;;;;;4922231;29;20074;-81
2022/11/12 10:08:31;;;;;;;11.57;9.35;;;8.50;99.90;;;;;;4923405;29;20519;-81
2022/11/12 10:11:14;;;;;;;14.48;9.65;;;8.50;99.90;;;;;;4907815;29;20063;-82
2022/11/12 10:14:04;;;;;;;14.77;9.52;;;8.50;99.90;;;;;;4938158;29;20048;-81
2022/11/12 10:16:58;;;;;;;13.07;10.02;;;8.60;99.90;;;;;;4922775;29;20047;-82
2022/11/12 10:19:55;;;;;;;12.02;10.32;;;8.70;99.90;;;;;;4921940;29;20499;-81
2022/11/12 10:22:39;;;;;;;10.70;9.60;;;8.60;99.90;;;;;;4906637;29;20081;-81
2022/11/12 10:25:17;;;;;;;12.57;8.98;;;8.70;99.90;;;;;;4903487;29;20431;-82
2022/11/12 10:27:44;;;;;;;12.18;9.52;;;8.30;99.90;;;;;;4925293;29;20054;-81
2022/11/12 10:30:22;;;;;;;10.40;9.35;;;8.80;99.90;;;;;;4909530;29;20043;-81
2022/11/12 10:32:49;;;;;;;15.20;9.98;;;8.80;99.90;;;;;;4909931;29;20143;-82
2022/11/12 10:35:32;;;;;;;10.50;9.15;;;8.90;99.90;;;;;;4902987;29;20430;-81
2022/11/12 10:38:05;;;;;;;11.90;9.90;;;9.00;99.90;;;;;;4927327;29;20052;-81
2022/11/12 10:40:34;;;;;;;10.93;9.52;;;9.10;99.90;;;;;;4923569;29;20109;-82
2022/11/12 10:43:23;;;;;;;13.02;8.88;;;9.20;99.90;;;;;;4941207;28;20075;-81
2022/11/12 10:45:50;;;;;;;10.90;9.00;;;9.40;99.90;;;;;;4939379;28;20051;-82
2022/11/12 10:48:33;;;;;;;10.77;8.77;;;9.50;99.90;;;;;;4915669;29;20046;-82
2022/11/12 10:50:59;;;;;;;13.80;9.38;;;9.50;99.90;;;;;;4913846;29;20043;-82
2022/11/12 10:53:36;;;;;;;10.40;9.30;;;9.70;99.90;;;;;;4928274;29;20080;-82
2022/11/12 10:56:32;;;;;;;12.88;8.85;;;10.00;99.90;;;;;;4924461;29;20032;-81
2022/11/12 10:59:19;;;;;;;11.73;8.52;;;10.30;99.90;;;;;;4925523;29;20044;-81
2022/11/12 11:01:55;;;;;;;9.55;8.50;;;10.60;99.90;;;;;;4925578;29;20043;-82
2022/11/12 11:04:48;;;;;;;10.10;8.05;;;10.90;99.90;;;;;;4915244;29;21032;-81
2022/11/12 11:07:21;;;;;;;8.75;7.75;;;11.20;99.90;;;;;;4925551;29;20059;-82
2022/11/12 11:10:21;;;;;;;11.50;8.50;;;11.40;99.90;;;;;;4909068;29;20036;-81
2022/11/12 11:12:46;;;;;;;9.07;7.53;;;11.70;99.90;;;;;;4914638;29;20046;-82
2022/11/12 11:15:23;;;;;;;13.25;8.60;;;11.90;99.90;;;;;;4912301;29;20036;-81
2022/11/12 11:18:26;;;;;;;8.40;7.50;;;12.30;99.90;;;;;;4929686;29;20163;-85
2022/11/12 11:21:02;;;;;;;10.23;7.32;;;12.60;99.90;;;;;;4920956;29;20051;-83
2022/11/12 11:23:36;;;;;;;9.88;7.03;;;12.80;99.90;;;;;;4924723;29;20052;-83
2022/11/12 11:30:12;;;;;;;8.73;7.32;;;13.10;99.90;;;;;;4923972;29;20119;-82
2022/11/12 11:32:47;;;;;;;12.45;7.30;;;13.30;99.90;;;;;;4907708;29;20043;-84
2022/11/12 11:35:39;;;;;;;6.90;6.10;;;13.50;99.90;;;;;;4908048;29;20047;-84
2022/11/12 11:38:18;;;;;;;8.63;6.65;;;13.60;99.90;;;;;;4911436;29;20060;-85
2022/11/12 11:41:29;;;;;;;9.27;6.90;;;13.70;99.90;;;;;;4926597;29;20036;-86
2022/11/12 11:45:08;;;;;;;8.30;6.72;;;13.70;99.90;;;;;;4930491;29;20082;-87
2022/11/12 11:48:51;;;;;;;10.65;6.40;;;13.70;99.90;;;;;;4906185;29;20047;-85
2022/11/12 11:52:05;;;;;;;9.20;6.72;;;13.60;99.90;;;;;;4875359;29;20526;-85
2022/11/12 11:54:37;;;;;;;8.02;6.85;;;13.60;99.90;;;;;;4909010;29;20497;-82
2022/11/12 11:57:10;;;;;;;10.48;7.10;;;13.70;99.90;;;;;;4940393;28;20040;-82
2022/11/12 11:59:53;;;;;;;9.38;7.53;;;13.50;99.90;;;;;;4921781;29;20040;-83
2022/11/12 12:02:30;;;;;;;10.13;7.10;;;13.50;99.90;;;;;;4926364;29;20074;-83
2022/11/12 12:05:31;;;;;;;10.23;7.28;;;13.50;99.90;;;;;;4921375;29;20498;-83
2022/11/12 12:08:01;;;;;;;11.45;6.75;;;13.50;99.90;;;;;;4924640;29;21351;-82
2022/11/12 12:10:45;;;;;;;8.48;7.38;;;13.40;99.90;;;;;;4926224;29;20051;-82
2022/11/12 12:13:48;;;;;;;9.98;7.70;;;13.40;99.90;;;;;;4928484;29;20090;-81
2022/11/12 12:16:36;;;;;;;8.63;6.93;;;13.40;99.90;;;;;;4919372;29;20043;-81
2022/11/12 12:19:24;;;;;;;10.52;7.28;;;13.20;99.90;;;;;;4926418;29;20089;-83
2022/11/12 12:21:50;;;;;;;9.30;7.10;;;13.30;99.90;;;;;;4907077;29;20130;-83
2022/11/12 12:24:30;;;;;;;10.43;7.13;;;12.90;99.90;;;;;;4908761;29;20044;-82
2022/11/12 12:27:23;;;;;;;8.90;6.75;;;12.90;99.90;;;;;;4924827;29;20036;-83
2022/11/12 12:30:01;;;;;;;7.65;6.35;;;12.90;99.90;;;;;;4918626;29;20048;-83
2022/11/12 12:32:29;;;;;;;9.50;7.18;;;12.90;99.90;;;;;;4938519;28;20056;-83
2022/11/12 12:35:20;;;;;;;15.77;8.07;;;13.00;99.90;;;;;;4904470;29;20298;-82
2022/11/12 12:38:24;;;;;;;9.35;7.85;;;12.90;99.90;;;;;;4926111;29;20566;-83
2022/11/12 12:41:08;;;;;;;10.13;7.70;;;12.80;99.90;;;;;;4922334;29;20563;-83
2022/11/12 12:43:49;;;;;;;8.73;6.57;;;12.70;99.90;;;;;;4923649;29;20491;-83
2022/11/12 12:46:18;;;;;;;7.65;6.85;;;12.70;99.90;;;;;;4924761;29;20483;-82
2022/11/12 12:48:46;;;;;;;7.80;7.00;;;12.60;99.90;;;;;;4937046;28;20414;-83
2022/11/12 12:51:12;;;;;;;9.10;7.32;;;12.60;99.90;;;;;;4922925;29;20487;-83
2022/11/12 12:53:39;;;;;;;10.88;6.95;;;12.50;99.90;;;;;;4927333;29;20438;-83
2022/11/12 12:56:26;;;;;;;8.93;6.43;;;12.50;99.90;;;;;;4912678;29;20036;-82
2022/11/12 12:58:52;;;;;;;9.88;6.93;;;12.20;99.90;;;;;;4923291;29;20050;-82
2022/11/12 13:01:21;;;;;;;7.35;6.47;;;12.50;99.90;;;;;;4909545;28;20039;-83
2022/11/12 13:03:57;;;;;;;8.02;7.22;;;12.50;99.90;;;;;;4908778;29;20063;-83
2022/11/12 13:06:26;;;;;;;8.20;7.18;;;12.50;99.90;;;;;;4925483;29;20130;-83
2022/11/12 13:09:04;;;;;;;8.18;6.70;;;12.50;99.90;;;;;;4922194;29;20059;-82
2022/11/12 13:14:35;;;;;;;7.97;6.13;;;12.50;99.90;;;;;;4924284;29;20102;-83
2022/11/12 13:17:03;;;;;;;10.15;7.13;;;12.50;99.90;;;;;;4924331;29;20062;-82
2022/11/12 13:19:36;;;;;;;9.43;6.88;;;12.40;99.90;;;;;;4907835;29;20624;-83
2022/11/12 13:22:16;;;;;;;8.73;6.70;;;12.40;99.90;;;;;;4926129;29;20438;-83
2022/11/12 13:25:11;;;;;;;8.98;7.13;;;12.40;99.90;;;;;;4903650;29;20388;-84
2022/11/12 13:27:43;;;;;;;8.10;7.25;;;12.50;99.90;;;;;;4905165;29;20535;-82
2022/11/12 13:30:17;;;;;;;8.20;7.38;;;12.40;99.90;;;;;;4924624;29;20055;-82
2022/11/12 13:32:45;;;;;;;11.55;7.78;;;12.40;99.90;;;;;;4908455;29;20090;-83
2022/11/12 13:35:14;;;;;;;8.95;7.25;;;12.40;99.90;;;;;;4906228;29;20336;-83
2022/11/12 13:37:43;;;;;;;8.18;7.32;;;12.50;99.90;;;;;;4906494;29;20048;-83
2022/11/12 13:40:16;;;;;;;7.50;6.78;;;12.40;99.90;;;;;;4925910;29;20043;-83
2022/11/12 13:42:48;;;;;;;8.80;6.63;;;12.40;99.90;;;;;;4921243;29;20048;-83
2022/11/12 13:45:23;;;;;;;13.38;6.82;;;12.40;99.90;;;;;;4905095;29;20139;-82
2022/11/12 13:47:50;;;;;;;11.20;7.10;;;13.10;99.90;;;;;;4910242;28;20127;-83
2022/11/12 13:50:19;;;;;;;8.25;6.60;;;12.40;99.90;;;;;;4924800;29;20123;-82
2022/11/12 13:52:46;;;;;;;10.18;6.38;;;12.40;99.90;;;;;;4907391;29;20562;-83
2022/11/12 13:55:19;;;;;;;7.90;6.60;;;12.60;99.90;;;;;;4912294;29;20130;-82
2022/11/12 13:57:54;;;;;;;8.10;6.75;;;12.40;99.90;;;;;;4909254;29;20372;-83
2022/11/12 14:00:22;;;;;;;9.25;6.85;;;12.50;99.90;;;;;;4926745;29;20541;-82
2022/11/12 14:03:14;;;;;;;9.50;6.93;;;12.40;99.90;;;;;;4913082;29;20090;-83